sensor_id;sensor_type;location;lat;lon;timestamp;P1;durP1;ratioP1;P2;durP2;ratioP2
9884;SDS011;4981;50.966;4.842;2024-01-06T00:00:19;16.50;;;5.07;;
9884;SDS011;4981;50.966;4.842;2024-01-06T00:02:48;12.30;;;4.90;;
9884;SDS011;4981;50.966;4.842;2024-01-06T00:05:15;18.27;;;5.47;;
9884;SDS011;4981;50.966;4.842;2024-01-06T00:07:42;23.90;;;6.30;;
9884;SDS011;4981;50.966;4.842;2024-01-06T00:10:09;11.40;;;4.90;;
9884;SDS011;4981;50.966;4.842;2024-01-06T00:12:36;14.73;;;4.70;;
9884;SDS011;4981;50.966;4.842;2024-01-06T00:15:04;14.07;;;4.60;;
9884;SDS011;4981;50.966;4.842;2024-01-06T00:17:32;13.53;;;4.20;;
9884;SDS011;4981;50.966;4.842;2024-01-06T00:19:59;13.90;;;4.23;;
9884;SDS011;4981;50.966;4.842;2024-01-06T00:22:27;9.37;;;3.50;;
9884;SDS011;4981;50.966;4.842;2024-01-06T00:24:54;8.83;;;4.03;;
9884;SDS011;4981;50.966;4.842;2024-01-06T00:27:21;16.50;;;3.80;;
9884;SDS011;4981;50.966;4.842;2024-01-06T00:29:50;11.20;;;3.27;;
9884;SDS011;4981;50.966;4.842;2024-01-06T00:32:17;14.67;;;3.93;;
9884;SDS011;4981;50.966;4.842;2024-01-06T00:34:44;13.00;;;4.37;;
9884;SDS011;4981;50.966;4.842;2024-01-06T00:37:12;14.20;;;3.70;;
9884;SDS011;4981;50.966;4.842;2024-01-06T00:39:39;14.33;;;4.23;;
9884;SDS011;4981;50.966;4.842;2024-01-06T00:42:06;10.63;;;4.10;;
9884;SDS011;4981;50.966;4.842;2024-01-06T00:44:33;10.07;;;4.27;;
9884;SDS011;4981;50.966;4.842;2024-01-06T00:47:03;15.57;;;4.30;;
9884;SDS011;4981;50.966;4.842;2024-01-06T00:49:30;13.90;;;4.40;;
9884;SDS011;4981;50.966;4.842;2024-01-06T00:51:57;20.20;;;4.60;;
9884;SDS011;4981;50.966;4.842;2024-01-06T00:54:24;10.27;;;4.23;;
9884;SDS011;4981;50.966;4.842;2024-01-06T00:56:51;11.97;;;4.43;;
9884;SDS011;4981;50.966;4.842;2024-01-06T00:59:18;12.13;;;3.80;;
9884;SDS011;4981;50.966;4.842;2024-01-06T01:01:45;12.23;;;4.60;;
9884;SDS011;4981;50.966;4.842;2024-01-06T01:04:13;13.40;;;4.47;;
9884;SDS011;4981;50.966;4.842;2024-01-06T01:06:41;9.73;;;4.20;;
9884;SDS011;4981;50.966;4.842;2024-01-06T01:09:08;12.87;;;4.00;;
9884;SDS011;4981;50.966;4.842;2024-01-06T01:11:35;11.87;;;4.50;;
9884;SDS011;4981;50.966;4.842;2024-01-06T01:14:02;11.20;;;4.00;;
9884;SDS011;4981;50.966;4.842;2024-01-06T01:16:29;11.43;;;4.57;;
9884;SDS011;4981;50.966;4.842;2024-01-06T01:18:57;11.97;;;4.37;;
9884;SDS011;4981;50.966;4.842;2024-01-06T01:21:25;15.23;;;4.70;;
9884;SDS011;4981;50.966;4.842;2024-01-06T01:23:52;13.97;;;4.40;;
9884;SDS011;4981;50.966;4.842;2024-01-06T01:26:19;10.60;;;4.40;;
9884;SDS011;4981;50.966;4.842;2024-01-06T01:28:46;10.30;;;5.00;;
9884;SDS011;4981;50.966;4.842;2024-01-06T01:31:13;11.17;;;5.23;;
9884;SDS011;4981;50.966;4.842;2024-01-06T01:33:40;11.40;;;4.97;;
9884;SDS011;4981;50.966;4.842;2024-01-06T01:36:07;10.00;;;4.70;;
9884;SDS011;4981;50.966;4.842;2024-01-06T01:38:37;9.97;;;4.53;;
9884;SDS011;4981;50.966;4.842;2024-01-06T01:41:04;4.87;;;4.20;;
9884;SDS011;4981;50.966;4.842;2024-01-06T01:43:31;6.97;;;4.17;;
9884;SDS011;4981;50.966;4.842;2024-01-06T01:45:58;5.57;;;3.80;;
9884;SDS011;4981;50.966;4.842;2024-01-06T01:48:25;7.10;;;3.83;;
9884;SDS011;4981;50.966;4.842;2024-01-06T01:50:53;5.80;;;3.47;;
9884;SDS011;4981;50.966;4.842;2024-01-06T01:53:20;7.23;;;3.50;;
9884;SDS011;4981;50.966;4.842;2024-01-06T01:55:50;6.27;;;3.40;;
9884;SDS011;4981;50.966;4.842;2024-01-06T01:58:17;8.37;;;3.67;;
9884;SDS011;4981;50.966;4.842;2024-01-06T02:00:45;5.13;;;3.10;;
9884;SDS011;4981;50.966;4.842;2024-01-06T02:03:12;7.30;;;3.60;;
9884;SDS011;4981;50.966;4.842;2024-01-06T02:05:40;6.90;;;3.57;;
9884;SDS011;4981;50.966;4.842;2024-01-06T02:08:07;6.13;;;3.40;;
9884;SDS011;4981;50.966;4.842;2024-01-06T02:10:34;3.80;;;3.00;;
9884;SDS011;4981;50.966;4.842;2024-01-06T02:13:08;7.17;;;3.10;;
9884;SDS011;4981;50.966;4.842;2024-01-06T02:15:36;3.43;;;3.13;;
9884;SDS011;4981;50.966;4.842;2024-01-06T02:18:03;4.70;;;3.00;;
9884;SDS011;4981;50.966;4.842;2024-01-06T02:20:31;5.20;;;3.10;;
9884;SDS011;4981;50.966;4.842;2024-01-06T02:22:59;3.20;;;2.43;;
9884;SDS011;4981;50.966;4.842;2024-01-06T02:25:26;6.00;;;2.60;;
9884;SDS011;4981;50.966;4.842;2024-01-06T02:27:54;3.27;;;2.17;;
9884;SDS011;4981;50.966;4.842;2024-01-06T02:30:21;2.03;;;1.87;;
9884;SDS011;4981;50.966;4.842;2024-01-06T02:32:48;2.50;;;2.13;;
9884;SDS011;4981;50.966;4.842;2024-01-06T02:35:15;3.70;;;2.00;;
9884;SDS011;4981;50.966;4.842;2024-01-06T02:37:42;5.93;;;4.23;;
9884;SDS011;4981;50.966;4.842;2024-01-06T02:40:11;4.30;;;2.60;;
9884;SDS011;4981;50.966;4.842;2024-01-06T02:42:39;6.77;;;3.10;;
9884;SDS011;4981;50.966;4.842;2024-01-06T02:45:07;7.33;;;4.30;;
9884;SDS011;4981;50.966;4.842;2024-01-06T02:47:35;8.63;;;4.93;;
9884;SDS011;4981;50.966;4.842;2024-01-06T02:50:02;12.10;;;7.03;;
9884;SDS011;4981;50.966;4.842;2024-01-06T02:52:30;12.30;;;8.10;;
9884;SDS011;4981;50.966;4.842;2024-01-06T02:54:57;17.23;;;8.83;;
9884;SDS011;4981;50.966;4.842;2024-01-06T02:57:25;18.17;;;9.07;;
9884;SDS011;4981;50.966;4.842;2024-01-06T02:59:52;19.60;;;9.40;;
9884;SDS011;4981;50.966;4.842;2024-01-06T03:02:19;15.30;;;9.30;;
9884;SDS011;4981;50.966;4.842;2024-01-06T03:04:46;17.63;;;10.27;;
9884;SDS011;4981;50.966;4.842;2024-01-06T03:07:13;16.20;;;9.03;;
9884;SDS011;4981;50.966;4.842;2024-01-06T03:09:40;13.03;;;8.30;;
9884;SDS011;4981;50.966;4.842;2024-01-06T03:12:07;12.50;;;9.23;;
9884;SDS011;4981;50.966;4.842;2024-01-06T03:14:36;11.87;;;8.60;;
9884;SDS011;4981;50.966;4.842;2024-01-06T03:17:04;10.83;;;8.57;;
9884;SDS011;4981;50.966;4.842;2024-01-06T03:19:31;10.50;;;8.30;;
9884;SDS011;4981;50.966;4.842;2024-01-06T03:21:58;14.87;;;9.50;;
9884;SDS011;4981;50.966;4.842;2024-01-06T03:24:25;11.70;;;8.43;;
9884;SDS011;4981;50.966;4.842;2024-01-06T03:26:53;15.83;;;9.13;;
9884;SDS011;4981;50.966;4.842;2024-01-06T03:29:19;16.13;;;8.93;;
9884;SDS011;4981;50.966;4.842;2024-01-06T03:31:48;13.17;;;10.17;;
9884;SDS011;4981;50.966;4.842;2024-01-06T03:34:15;16.10;;;10.40;;
9884;SDS011;4981;50.966;4.842;2024-01-06T03:36:42;15.20;;;9.77;;
9884;SDS011;4981;50.966;4.842;2024-01-06T03:39:09;14.53;;;10.27;;
9884;SDS011;4981;50.966;4.842;2024-01-06T03:41:38;14.03;;;9.30;;
9884;SDS011;4981;50.966;4.842;2024-01-06T03:44:05;15.83;;;10.43;;
9884;SDS011;4981;50.966;4.842;2024-01-06T03:46:32;15.37;;;9.93;;
9884;SDS011;4981;50.966;4.842;2024-01-06T03:49:02;18.60;;;10.37;;
9884;SDS011;4981;50.966;4.842;2024-01-06T03:51:29;14.23;;;10.23;;
9884;SDS011;4981;50.966;4.842;2024-01-06T03:53:59;13.97;;;10.03;;
9884;SDS011;4981;50.966;4.842;2024-01-06T03:56:26;17.73;;;10.93;;
9884;SDS011;4981;50.966;4.842;2024-01-06T03:58:53;18.60;;;11.47;;
9884;SDS011;4981;50.966;4.842;2024-01-06T04:01:19;17.73;;;11.20;;
9884;SDS011;4981;50.966;4.842;2024-01-06T04:03:47;17.50;;;11.23;;
9884;SDS011;4981;50.966;4.842;2024-01-06T04:06:15;18.27;;;10.73;;
9884;SDS011;4981;50.966;4.842;2024-01-06T04:08:42;18.30;;;12.07;;
9884;SDS011;4981;50.966;4.842;2024-01-06T04:11:09;16.23;;;11.03;;
9884;SDS011;4981;50.966;4.842;2024-01-06T04:13:36;17.67;;;11.00;;
9884;SDS011;4981;50.966;4.842;2024-01-06T04:16:03;15.70;;;11.57;;
9884;SDS011;4981;50.966;4.842;2024-01-06T04:18:30;19.90;;;11.97;;
9884;SDS011;4981;50.966;4.842;2024-01-06T04:20:57;17.97;;;11.73;;
9884;SDS011;4981;50.966;4.842;2024-01-06T04:23:25;16.47;;;11.10;;
9884;SDS011;4981;50.966;4.842;2024-01-06T04:25:52;16.93;;;12.23;;
9884;SDS011;4981;50.966;4.842;2024-01-06T04:28:19;21.97;;;12.63;;
9884;SDS011;4981;50.966;4.842;2024-01-06T04:30:46;20.90;;;12.47;;
9884;SDS011;4981;50.966;4.842;2024-01-06T04:33:13;20.63;;;12.60;;
9884;SDS011;4981;50.966;4.842;2024-01-06T04:35:40;19.10;;;11.37;;
9884;SDS011;4981;50.966;4.842;2024-01-06T04:38:08;17.60;;;12.03;;
9884;SDS011;4981;50.966;4.842;2024-01-06T04:40:36;20.10;;;12.17;;
9884;SDS011;4981;50.966;4.842;2024-01-06T04:43:03;16.37;;;11.93;;
9884;SDS011;4981;50.966;4.842;2024-01-06T04:45:30;18.57;;;11.87;;
9884;SDS011;4981;50.966;4.842;2024-01-06T04:47:57;17.20;;;11.40;;
9884;SDS011;4981;50.966;4.842;2024-01-06T04:50:24;16.13;;;11.60;;
9884;SDS011;4981;50.966;4.842;2024-01-06T04:52:51;16.13;;;11.10;;
9884;SDS011;4981;50.966;4.842;2024-01-06T04:55:18;16.43;;;10.13;;
9884;SDS011;4981;50.966;4.842;2024-01-06T04:57:47;11.80;;;9.50;;
9884;SDS011;4981;50.966;4.842;2024-01-06T05:00:15;15.03;;;10.37;;
9884;SDS011;4981;50.966;4.842;2024-01-06T05:02:42;15.33;;;9.67;;
9884;SDS011;4981;50.966;4.842;2024-01-06T05:05:10;14.60;;;10.00;;
9884;SDS011;4981;50.966;4.842;2024-01-06T05:07:36;17.53;;;10.30;;
9884;SDS011;4981;50.966;4.842;2024-01-06T05:10:04;17.40;;;10.33;;
9884;SDS011;4981;50.966;4.842;2024-01-06T05:12:32;14.37;;;9.57;;
9884;SDS011;4981;50.966;4.842;2024-01-06T05:15:00;15.10;;;10.10;;
9884;SDS011;4981;50.966;4.842;2024-01-06T05:17:27;14.93;;;10.67;;
9884;SDS011;4981;50.966;4.842;2024-01-06T05:19:54;7.90;;;5.97;;
9884;SDS011;4981;50.966;4.842;2024-01-06T05:22:21;16.10;;;11.33;;
9884;SDS011;4981;50.966;4.842;2024-01-06T05:24:48;10.90;;;9.37;;
9884;SDS011;4981;50.966;4.842;2024-01-06T05:27:18;11.60;;;9.30;;
9884;SDS011;4981;50.966;4.842;2024-01-06T05:29:45;12.90;;;9.80;;
9884;SDS011;4981;50.966;4.842;2024-01-06T05:32:15;14.13;;;9.87;;
9884;SDS011;4981;50.966;4.842;2024-01-06T05:34:43;14.07;;;9.67;;
9884;SDS011;4981;50.966;4.842;2024-01-06T05:37:10;11.67;;;9.63;;
9884;SDS011;4981;50.966;4.842;2024-01-06T05:39:37;14.30;;;10.10;;
9884;SDS011;4981;50.966;4.842;2024-01-06T05:42:05;14.03;;;9.90;;
9884;SDS011;4981;50.966;4.842;2024-01-06T05:44:34;15.63;;;10.67;;
9884;SDS011;4981;50.966;4.842;2024-01-06T05:47:02;15.03;;;10.17;;
9884;SDS011;4981;50.966;4.842;2024-01-06T05:49:31;13.23;;;9.87;;
9884;SDS011;4981;50.966;4.842;2024-01-06T05:51:58;13.33;;;9.70;;
9884;SDS011;4981;50.966;4.842;2024-01-06T05:54:25;15.37;;;10.57;;
9884;SDS011;4981;50.966;4.842;2024-01-06T05:56:52;16.70;;;10.17;;
9884;SDS011;4981;50.966;4.842;2024-01-06T05:59:19;12.97;;;10.13;;
9884;SDS011;4981;50.966;4.842;2024-01-06T06:01:46;15.27;;;10.20;;
9884;SDS011;4981;50.966;4.842;2024-01-06T06:04:13;13.73;;;9.63;;
9884;SDS011;4981;50.966;4.842;2024-01-06T06:06:41;15.37;;;9.80;;
9884;SDS011;4981;50.966;4.842;2024-01-06T06:09:08;12.87;;;9.83;;
9884;SDS011;4981;50.966;4.842;2024-01-06T06:11:35;12.80;;;10.07;;
9884;SDS011;4981;50.966;4.842;2024-01-06T06:14:02;14.87;;;10.90;;
9884;SDS011;4981;50.966;4.842;2024-01-06T06:16:29;14.37;;;11.23;;
9884;SDS011;4981;50.966;4.842;2024-01-06T06:18:56;13.83;;;10.47;;
9884;SDS011;4981;50.966;4.842;2024-01-06T06:21:23;12.93;;;10.70;;
9884;SDS011;4981;50.966;4.842;2024-01-06T06:23:52;13.83;;;11.40;;
9884;SDS011;4981;50.966;4.842;2024-01-06T06:26:19;16.33;;;10.70;;
9884;SDS011;4981;50.966;4.842;2024-01-06T06:28:46;15.60;;;10.27;;
9884;SDS011;4981;50.966;4.842;2024-01-06T06:31:13;14.97;;;10.10;;
9884;SDS011;4981;50.966;4.842;2024-01-06T06:33:40;14.43;;;9.73;;
9884;SDS011;4981;50.966;4.842;2024-01-06T06:36:07;14.00;;;9.97;;
9884;SDS011;4981;50.966;4.842;2024-01-06T06:38:34;15.33;;;10.33;;
9884;SDS011;4981;50.966;4.842;2024-01-06T06:41:02;14.63;;;10.60;;
9884;SDS011;4981;50.966;4.842;2024-01-06T06:43:30;16.20;;;10.50;;
9884;SDS011;4981;50.966;4.842;2024-01-06T06:45:59;16.00;;;11.37;;
9884;SDS011;4981;50.966;4.842;2024-01-06T06:48:27;13.43;;;10.67;;
9884;SDS011;4981;50.966;4.842;2024-01-06T06:50:54;15.63;;;10.60;;
9884;SDS011;4981;50.966;4.842;2024-01-06T06:53:21;13.93;;;11.47;;
9884;SDS011;4981;50.966;4.842;2024-01-06T06:55:48;13.90;;;10.73;;
9884;SDS011;4981;50.966;4.842;2024-01-06T06:58:16;12.70;;;10.23;;
9884;SDS011;4981;50.966;4.842;2024-01-06T07:00:43;15.10;;;11.57;;
9884;SDS011;4981;50.966;4.842;2024-01-06T07:03:10;14.13;;;10.90;;
9884;SDS011;4981;50.966;4.842;2024-01-06T07:05:39;14.83;;;9.80;;
9884;SDS011;4981;50.966;4.842;2024-01-06T07:08:06;14.30;;;9.60;;
9884;SDS011;4981;50.966;4.842;2024-01-06T07:10:33;12.30;;;9.20;;
9884;SDS011;4981;50.966;4.842;2024-01-06T07:13:00;13.53;;;8.53;;
9884;SDS011;4981;50.966;4.842;2024-01-06T07:15:28;11.93;;;8.40;;
9884;SDS011;4981;50.966;4.842;2024-01-06T07:17:55;11.50;;;9.00;;
9884;SDS011;4981;50.966;4.842;2024-01-06T07:20:22;13.90;;;8.93;;
9884;SDS011;4981;50.966;4.842;2024-01-06T07:22:49;12.03;;;9.43;;
9884;SDS011;4981;50.966;4.842;2024-01-06T07:25:16;14.10;;;9.63;;
9884;SDS011;4981;50.966;4.842;2024-01-06T07:27:43;10.20;;;8.90;;
9884;SDS011;4981;50.966;4.842;2024-01-06T07:30:10;11.37;;;9.23;;
9884;SDS011;4981;50.966;4.842;2024-01-06T07:32:39;12.63;;;9.03;;
9884;SDS011;4981;50.966;4.842;2024-01-06T07:35:07;12.67;;;9.50;;
9884;SDS011;4981;50.966;4.842;2024-01-06T07:37:34;12.77;;;9.27;;
9884;SDS011;4981;50.966;4.842;2024-01-06T07:40:01;12.00;;;9.07;;
9884;SDS011;4981;50.966;4.842;2024-01-06T07:42:28;12.40;;;9.33;;
9884;SDS011;4981;50.966;4.842;2024-01-06T07:44:55;11.77;;;8.17;;
9884;SDS011;4981;50.966;4.842;2024-01-06T07:47:22;13.37;;;8.70;;
9884;SDS011;4981;50.966;4.842;2024-01-06T07:49:51;10.50;;;8.67;;
9884;SDS011;4981;50.966;4.842;2024-01-06T07:52:19;13.63;;;9.00;;
9884;SDS011;4981;50.966;4.842;2024-01-06T07:54:46;11.13;;;9.53;;
9884;SDS011;4981;50.966;4.842;2024-01-06T07:57:13;14.03;;;9.97;;
9884;SDS011;4981;50.966;4.842;2024-01-06T07:59:40;11.50;;;9.87;;
9884;SDS011;4981;50.966;4.842;2024-01-06T08:02:07;13.83;;;9.67;;
9884;SDS011;4981;50.966;4.842;2024-01-06T08:04:35;12.90;;;10.00;;
9884;SDS011;4981;50.966;4.842;2024-01-06T08:07:03;14.23;;;10.63;;
9884;SDS011;4981;50.966;4.842;2024-01-06T08:09:30;12.60;;;9.27;;
9884;SDS011;4981;50.966;4.842;2024-01-06T08:14:43;15.87;;;9.97;;
9884;SDS011;4981;50.966;4.842;2024-01-06T08:17:10;15.67;;;10.00;;
9884;SDS011;4981;50.966;4.842;2024-01-06T08:19:37;15.53;;;9.87;;
9884;SDS011;4981;50.966;4.842;2024-01-06T08:22:05;17.03;;;9.30;;
9884;SDS011;4981;50.966;4.842;2024-01-06T08:24:32;13.00;;;9.03;;
9884;SDS011;4981;50.966;4.842;2024-01-06T08:26:59;16.23;;;9.87;;
9884;SDS011;4981;50.966;4.842;2024-01-06T08:29:26;14.17;;;10.27;;
9884;SDS011;4981;50.966;4.842;2024-01-06T08:31:53;13.03;;;9.60;;
9884;SDS011;4981;50.966;4.842;2024-01-06T08:34:20;12.27;;;9.23;;
9884;SDS011;4981;50.966;4.842;2024-01-06T08:36:48;11.40;;;8.87;;
9884;SDS011;4981;50.966;4.842;2024-01-06T08:39:17;11.77;;;9.20;;
9884;SDS011;4981;50.966;4.842;2024-01-06T08:41:44;15.40;;;9.23;;
9884;SDS011;4981;50.966;4.842;2024-01-06T08:44:11;16.43;;;9.47;;
9884;SDS011;4981;50.966;4.842;2024-01-06T08:46:41;11.97;;;9.20;;
9884;SDS011;4981;50.966;4.842;2024-01-06T08:49:08;12.17;;;8.97;;
9884;SDS011;4981;50.966;4.842;2024-01-06T08:51:35;15.10;;;10.43;;
9884;SDS011;4981;50.966;4.842;2024-01-06T08:54:02;11.83;;;9.30;;
9884;SDS011;4981;50.966;4.842;2024-01-06T08:56:31;12.27;;;9.40;;
9884;SDS011;4981;50.966;4.842;2024-01-06T08:58:59;13.70;;;9.87;;
9884;SDS011;4981;50.966;4.842;2024-01-06T09:01:26;13.80;;;9.57;;
9884;SDS011;4981;50.966;4.842;2024-01-06T09:03:53;11.77;;;8.60;;
9884;SDS011;4981;50.966;4.842;2024-01-06T09:06:20;12.03;;;8.13;;
9884;SDS011;4981;50.966;4.842;2024-01-06T09:08:47;8.87;;;7.53;;
9884;SDS011;4981;50.966;4.842;2024-01-06T09:11:14;11.83;;;8.70;;
9884;SDS011;4981;50.966;4.842;2024-01-06T09:13:42;12.43;;;8.07;;
9884;SDS011;4981;50.966;4.842;2024-01-06T09:16:10;10.50;;;7.67;;
9884;SDS011;4981;50.966;4.842;2024-01-06T09:18:37;9.50;;;7.17;;
9884;SDS011;4981;50.966;4.842;2024-01-06T09:21:04;13.30;;;8.10;;
9884;SDS011;4981;50.966;4.842;2024-01-06T09:23:32;7.97;;;6.53;;
9884;SDS011;4981;50.966;4.842;2024-01-06T09:25:59;10.73;;;7.07;;
9884;SDS011;4981;50.966;4.842;2024-01-06T09:28:26;10.47;;;7.37;;
9884;SDS011;4981;50.966;4.842;2024-01-06T09:30:54;10.33;;;7.27;;
9884;SDS011;4981;50.966;4.842;2024-01-06T09:33:21;8.40;;;6.77;;
9884;SDS011;4981;50.966;4.842;2024-01-06T09:35:48;9.57;;;7.53;;
9884;SDS011;4981;50.966;4.842;2024-01-06T09:38:15;12.90;;;7.33;;
9884;SDS011;4981;50.966;4.842;2024-01-06T09:40:43;9.63;;;6.70;;
9884;SDS011;4981;50.966;4.842;2024-01-06T09:43:11;7.73;;;6.17;;
9884;SDS011;4981;50.966;4.842;2024-01-06T09:45:38;8.00;;;7.03;;
9884;SDS011;4981;50.966;4.842;2024-01-06T09:48:08;8.90;;;6.20;;
9884;SDS011;4981;50.966;4.842;2024-01-06T09:50:38;6.93;;;5.87;;
9884;SDS011;4981;50.966;4.842;2024-01-06T09:53:08;8.40;;;6.60;;
9884;SDS011;4981;50.966;4.842;2024-01-06T09:55:37;8.23;;;6.20;;
9884;SDS011;4981;50.966;4.842;2024-01-06T09:58:04;7.97;;;5.57;;
9884;SDS011;4981;50.966;4.842;2024-01-06T10:00:31;8.07;;;5.60;;
9884;SDS011;4981;50.966;4.842;2024-01-06T10:02:58;8.57;;;6.03;;
9884;SDS011;4981;50.966;4.842;2024-01-06T10:05:27;8.60;;;5.77;;
9884;SDS011;4981;50.966;4.842;2024-01-06T10:07:54;7.17;;;5.87;;
9884;SDS011;4981;50.966;4.842;2024-01-06T10:10:22;7.50;;;6.00;;
9884;SDS011;4981;50.966;4.842;2024-01-06T10:12:52;7.90;;;6.17;;
9884;SDS011;4981;50.966;4.842;2024-01-06T10:15:20;11.20;;;6.60;;
9884;SDS011;4981;50.966;4.842;2024-01-06T10:17:48;12.20;;;7.03;;
9884;SDS011;4981;50.966;4.842;2024-01-06T10:20:15;9.83;;;6.60;;
9884;SDS011;4981;50.966;4.842;2024-01-06T10:22:44;10.33;;;6.63;;
9884;SDS011;4981;50.966;4.842;2024-01-06T10:25:12;10.20;;;7.13;;
9884;SDS011;4981;50.966;4.842;2024-01-06T10:27:40;9.83;;;6.37;;
9884;SDS011;4981;50.966;4.842;2024-01-06T10:30:08;15.13;;;6.93;;
9884;SDS011;4981;50.966;4.842;2024-01-06T10:32:38;8.13;;;6.03;;
9884;SDS011;4981;50.966;4.842;2024-01-06T10:35:06;12.20;;;6.13;;
9884;SDS011;4981;50.966;4.842;2024-01-06T10:37:34;6.80;;;6.10;;
9884;SDS011;4981;50.966;4.842;2024-01-06T10:40:08;9.83;;;7.10;;
9884;SDS011;4981;50.966;4.842;2024-01-06T10:42:35;10.83;;;7.00;;
9884;SDS011;4981;50.966;4.842;2024-01-06T10:45:05;8.50;;;6.07;;
9884;SDS011;4981;50.966;4.842;2024-01-06T10:47:34;8.80;;;5.87;;
9884;SDS011;4981;50.966;4.842;2024-01-06T10:50:00;8.37;;;5.40;;
9884;SDS011;4981;50.966;4.842;2024-01-06T10:52:28;7.70;;;5.43;;
9884;SDS011;4981;50.966;4.842;2024-01-06T10:54:55;8.17;;;6.07;;
9884;SDS011;4981;50.966;4.842;2024-01-06T10:57:24;7.90;;;5.90;;
9884;SDS011;4981;50.966;4.842;2024-01-06T10:59:53;7.10;;;6.03;;
9884;SDS011;4981;50.966;4.842;2024-01-06T11:02:20;7.90;;;6.40;;
9884;SDS011;4981;50.966;4.842;2024-01-06T11:04:50;5.43;;;4.93;;
9884;SDS011;4981;50.966;4.842;2024-01-06T11:07:18;5.50;;;4.70;;
9884;SDS011;4981;50.966;4.842;2024-01-06T11:09:50;6.93;;;5.67;;
9884;SDS011;4981;50.966;4.842;2024-01-06T11:12:20;10.73;;;8.10;;
9884;SDS011;4981;50.966;4.842;2024-01-06T11:14:49;6.80;;;5.83;;
9884;SDS011;4981;50.966;4.842;2024-01-06T11:20:17;4.50;;;4.10;;
9884;SDS011;4981;50.966;4.842;2024-01-06T11:22:44;6.13;;;4.53;;
9884;SDS011;4981;50.966;4.842;2024-01-06T11:25:13;6.47;;;4.23;;
9884;SDS011;4981;50.966;4.842;2024-01-06T11:27:42;4.73;;;3.97;;
9884;SDS011;4981;50.966;4.842;2024-01-06T11:30:19;5.43;;;4.70;;
9884;SDS011;4981;50.966;4.842;2024-01-06T11:32:48;5.10;;;4.57;;
9884;SDS011;4981;50.966;4.842;2024-01-06T11:35:18;6.70;;;4.13;;
9884;SDS011;4981;50.966;4.842;2024-01-06T11:37:53;5.40;;;4.47;;
9884;SDS011;4981;50.966;4.842;2024-01-06T11:40:23;5.50;;;4.67;;
9884;SDS011;4981;50.966;4.842;2024-01-06T11:42:58;4.93;;;3.70;;
9884;SDS011;4981;50.966;4.842;2024-01-06T11:45:29;4.03;;;3.63;;
9884;SDS011;4981;50.966;4.842;2024-01-06T11:52:56;6.27;;;4.20;;
9884;SDS011;4981;50.966;4.842;2024-01-06T11:55:24;5.50;;;4.57;;
9884;SDS011;4981;50.966;4.842;2024-01-06T12:00:32;6.17;;;4.63;;
9884;SDS011;4981;50.966;4.842;2024-01-06T12:03:00;5.03;;;4.50;;
9884;SDS011;4981;50.966;4.842;2024-01-06T12:05:29;5.07;;;4.27;;
9884;SDS011;4981;50.966;4.842;2024-01-06T12:07:57;5.30;;;3.73;;
9884;SDS011;4981;50.966;4.842;2024-01-06T12:10:25;5.23;;;4.10;;
9884;SDS011;4981;50.966;4.842;2024-01-06T12:12:57;8.67;;;4.23;;
9884;SDS011;4981;50.966;4.842;2024-01-06T12:15:25;5.37;;;4.63;;
9884;SDS011;4981;50.966;4.842;2024-01-06T12:17:54;4.17;;;3.70;;
9884;SDS011;4981;50.966;4.842;2024-01-06T12:20:21;5.00;;;3.53;;
9884;SDS011;4981;50.966;4.842;2024-01-06T12:22:49;7.77;;;5.33;;
9884;SDS011;4981;50.966;4.842;2024-01-06T12:25:17;6.33;;;5.10;;
9884;SDS011;4981;50.966;4.842;2024-01-06T12:27:44;5.53;;;4.70;;
9884;SDS011;4981;50.966;4.842;2024-01-06T12:30:12;4.73;;;4.27;;
9884;SDS011;4981;50.966;4.842;2024-01-06T12:32:44;6.93;;;4.63;;
9884;SDS011;4981;50.966;4.842;2024-01-06T12:37:41;7.17;;;4.63;;
9884;SDS011;4981;50.966;4.842;2024-01-06T12:40:10;8.90;;;6.87;;
9884;SDS011;4981;50.966;4.842;2024-01-06T12:42:40;6.40;;;5.60;;
9884;SDS011;4981;50.966;4.842;2024-01-06T12:45:08;6.37;;;5.57;;
9884;SDS011;4981;50.966;4.842;2024-01-06T12:47:36;6.70;;;4.60;;
9884;SDS011;4981;50.966;4.842;2024-01-06T12:50:03;7.03;;;5.20;;
9884;SDS011;4981;50.966;4.842;2024-01-06T12:52:33;8.27;;;5.77;;
9884;SDS011;4981;50.966;4.842;2024-01-06T12:54:59;6.50;;;5.50;;
9884;SDS011;4981;50.966;4.842;2024-01-06T12:57:28;5.97;;;5.30;;
9884;SDS011;4981;50.966;4.842;2024-01-06T12:59:55;6.03;;;4.70;;
9884;SDS011;4981;50.966;4.842;2024-01-06T13:02:22;5.53;;;4.17;;
9884;SDS011;4981;50.966;4.842;2024-01-06T13:04:49;6.57;;;5.10;;
9884;SDS011;4981;50.966;4.842;2024-01-06T13:07:16;6.23;;;4.37;;
9884;SDS011;4981;50.966;4.842;2024-01-06T13:09:44;6.37;;;5.07;;
9884;SDS011;4981;50.966;4.842;2024-01-06T13:12:11;6.47;;;5.77;;
9884;SDS011;4981;50.966;4.842;2024-01-06T13:14:38;9.63;;;6.77;;
9884;SDS011;4981;50.966;4.842;2024-01-06T13:17:05;10.80;;;7.67;;
9884;SDS011;4981;50.966;4.842;2024-01-06T13:19:34;8.37;;;6.30;;
9884;SDS011;4981;50.966;4.842;2024-01-06T13:22:01;9.83;;;6.43;;
9884;SDS011;4981;50.966;4.842;2024-01-06T13:24:28;7.97;;;6.10;;
9884;SDS011;4981;50.966;4.842;2024-01-06T13:26:56;9.83;;;6.23;;
9884;SDS011;4981;50.966;4.842;2024-01-06T13:29:26;9.70;;;7.13;;
9884;SDS011;4981;50.966;4.842;2024-01-06T13:31:53;8.83;;;6.30;;
9884;SDS011;4981;50.966;4.842;2024-01-06T13:34:22;7.93;;;7.13;;
9884;SDS011;4981;50.966;4.842;2024-01-06T13:36:49;9.00;;;6.67;;
9884;SDS011;4981;50.966;4.842;2024-01-06T13:39:16;8.73;;;6.60;;
9884;SDS011;4981;50.966;4.842;2024-01-06T13:41:45;6.70;;;6.00;;
9884;SDS011;4981;50.966;4.842;2024-01-06T13:44:14;6.87;;;6.00;;
9884;SDS011;4981;50.966;4.842;2024-01-06T13:46:41;11.77;;;5.90;;
9884;SDS011;4981;50.966;4.842;2024-01-06T13:49:09;6.63;;;5.93;;
9884;SDS011;4981;50.966;4.842;2024-01-06T13:51:37;9.43;;;5.73;;
9884;SDS011;4981;50.966;4.842;2024-01-06T13:54:05;7.33;;;5.57;;
9884;SDS011;4981;50.966;4.842;2024-01-06T13:56:32;9.57;;;6.47;;
9884;SDS011;4981;50.966;4.842;2024-01-06T13:58:59;7.07;;;5.93;;
9884;SDS011;4981;50.966;4.842;2024-01-06T14:01:27;9.77;;;7.50;;
9884;SDS011;4981;50.966;4.842;2024-01-06T14:03:55;10.83;;;7.27;;
9884;SDS011;4981;50.966;4.842;2024-01-06T14:06:23;9.40;;;7.13;;
9884;SDS011;4981;50.966;4.842;2024-01-06T14:08:54;7.90;;;6.63;;
9884;SDS011;4981;50.966;4.842;2024-01-06T14:11:21;12.13;;;8.53;;
9884;SDS011;4981;50.966;4.842;2024-01-06T14:13:48;11.00;;;8.13;;
9884;SDS011;4981;50.966;4.842;2024-01-06T14:16:16;8.57;;;7.47;;
9884;SDS011;4981;50.966;4.842;2024-01-06T14:18:45;9.10;;;7.80;;
9884;SDS011;4981;50.966;4.842;2024-01-06T14:21:12;7.53;;;6.43;;
9884;SDS011;4981;50.966;4.842;2024-01-06T14:23:40;19.77;;;14.40;;
9884;SDS011;4981;50.966;4.842;2024-01-06T14:26:07;10.37;;;8.17;;
9884;SDS011;4981;50.966;4.842;2024-01-06T14:28:34;10.07;;;7.10;;
9884;SDS011;4981;50.966;4.842;2024-01-06T14:31:02;11.03;;;6.60;;
9884;SDS011;4981;50.966;4.842;2024-01-06T14:33:29;8.13;;;6.20;;
9884;SDS011;4981;50.966;4.842;2024-01-06T14:35:57;10.63;;;6.60;;
9884;SDS011;4981;50.966;4.842;2024-01-06T14:38:24;9.07;;;7.00;;
9884;SDS011;4981;50.966;4.842;2024-01-06T14:40:51;10.67;;;8.03;;
9884;SDS011;4981;50.966;4.842;2024-01-06T14:43:19;8.73;;;6.63;;
9884;SDS011;4981;50.966;4.842;2024-01-06T14:45:46;9.73;;;6.27;;
9884;SDS011;4981;50.966;4.842;2024-01-06T14:48:14;10.90;;;7.33;;
9884;SDS011;4981;50.966;4.842;2024-01-06T14:50:41;13.87;;;6.70;;
9884;SDS011;4981;50.966;4.842;2024-01-06T14:53:09;9.90;;;7.50;;
9884;SDS011;4981;50.966;4.842;2024-01-06T14:55:36;11.43;;;6.67;;
9884;SDS011;4981;50.966;4.842;2024-01-06T14:58:03;10.80;;;6.60;;
9884;SDS011;4981;50.966;4.842;2024-01-06T15:00:31;8.53;;;5.77;;
9884;SDS011;4981;50.966;4.842;2024-01-06T15:02:58;7.13;;;5.57;;
9884;SDS011;4981;50.966;4.842;2024-01-06T15:05:25;8.13;;;5.97;;
9884;SDS011;4981;50.966;4.842;2024-01-06T15:07:54;7.13;;;5.80;;
9884;SDS011;4981;50.966;4.842;2024-01-06T15:10:22;8.27;;;5.93;;
9884;SDS011;4981;50.966;4.842;2024-01-06T15:12:49;7.07;;;5.40;;
9884;SDS011;4981;50.966;4.842;2024-01-06T15:15:16;8.37;;;5.90;;
9884;SDS011;4981;50.966;4.842;2024-01-06T15:17:43;8.07;;;6.10;;
9884;SDS011;4981;50.966;4.842;2024-01-06T15:20:10;8.23;;;5.50;;
9884;SDS011;4981;50.966;4.842;2024-01-06T15:22:38;10.07;;;6.50;;